Time;durP1;ratioP1;P1;durP2;ratioP2;P2;SDS_P1;SDS_P2;PMS_P1;PMS_P2;Temp;Humidity;BMP_temperature;BMP_pressure;BME280_temperature;BME280_humidity;BME280_pressure;Samples;Min_cycle;Max_cycle;Signal;HPM_P1;HPM_P2
2022/12/29 00:02:13;;;;;;;2.73;2.30;;;8.50;99.90;;;;;;5031524;28;20480;-69
2022/12/29 00:04:38;;;;;;;2.63;2.33;;;8.60;99.90;;;;;;5031612;28;20189;-70
2022/12/29 00:07:05;;;;;;;4.00;2.50;;;8.60;99.90;;;;;;5031595;28;20417;-70
2022/12/29 00:09:31;;;;;;;2.50;2.23;;;8.70;99.90;;;;;;5031290;28;20178;-70
2022/12/29 00:11:57;;;;;;;2.77;2.03;;;8.70;99.90;;;;;;5031327;28;20432;-69
2022/12/29 00:17:08;;;;;;;2.00;1.90;;;8.80;99.90;;;;;;5035296;28;20921;-68
2022/12/29 00:36:16;;;;;;;4.13;3.77;;;8.90;99.90;;;;;;5035018;28;20436;-68
2022/12/29 00:44:21;;;;;;;1.80;1.70;;;8.90;99.90;;;;;;5034952;28;20786;-69
2022/12/29 00:46:47;;;;;;;3.60;1.87;;;8.90;99.90;;;;;;5034746;28;20458;-68
2022/12/29 00:49:32;;;;;;;4.10;2.00;;;8.90;99.90;;;;;;5034521;28;20166;-68
2022/12/29 00:52:02;;;;;;;2.50;1.73;;;8.90;99.90;;;;;;5034653;28;20178;-68
2022/12/29 00:54:30;;;;;;;1.80;1.70;;;8.90;99.90;;;;;;5034528;28;20444;-69
2022/12/29 00:56:56;;;;;;;1.87;1.67;;;8.90;99.90;;;;;;5034691;28;20505;-68
2022/12/29 00:59:23;;;;;;;3.53;2.10;;;8.90;99.90;;;;;;5034233;28;21049;-68
2022/12/29 01:01:50;;;;;;;2.60;1.93;;;8.90;99.90;;;;;;5034422;28;20220;-69
2022/12/29 01:04:16;;;;;;;2.10;1.80;;;8.80;99.90;;;;;;5034367;28;20504;-68
2022/12/29 01:06:41;;;;;;;3.40;2.07;;;8.80;99.90;;;;;;5034348;28;20448;-70
2022/12/29 01:11:53;;;;;;;4.50;1.70;;;8.90;99.90;;;;;;5034210;28;20201;-68
2022/12/29 01:14:19;;;;;;;2.83;1.70;;;8.80;99.90;;;;;;5034353;28;20413;-68
2022/12/29 01:16:45;;;;;;;1.83;1.63;;;8.80;99.90;;;;;;5034262;28;20304;-68
2022/12/29 01:19:11;;;;;;;2.53;2.33;;;8.80;99.90;;;;;;5033838;28;20499;-69
2022/12/29 01:21:36;;;;;;;2.53;2.20;;;8.80;99.90;;;;;;5034145;28;20449;-70
2022/12/29 01:24:02;;;;;;;2.70;1.87;;;8.80;99.90;;;;;;5033194;28;20639;-68
2022/12/29 01:26:28;;;;;;;2.87;1.70;;;8.80;99.90;;;;;;5033892;28;20192;-69
2022/12/29 01:28:53;;;;;;;2.07;1.57;;;8.80;99.90;;;;;;5033759;28;20416;-69
2022/12/29 01:31:19;;;;;;;1.83;1.70;;;8.80;99.90;;;;;;5033955;28;20209;-68
2022/12/29 01:33:44;;;;;;;2.90;1.70;;;8.80;99.90;;;;;;5033778;28;20194;-68
2022/12/29 01:36:12;;;;;;;2.27;1.90;;;8.90;99.90;;;;;;5033865;28;20543;-69
2022/12/29 01:38:38;;;;;;;3.93;2.03;;;8.90;99.90;;;;;;5033344;28;20198;-70
2022/12/29 01:41:06;;;;;;;1.70;1.60;;;8.90;99.90;;;;;;5033912;28;20413;-68
2022/12/29 01:43:50;;;;;;;3.97;1.87;;;8.90;99.90;;;;;;5033691;28;20457;-69
2022/12/29 01:46:24;;;;;;;2.80;2.00;;;9.00;99.90;;;;;;5033589;28;20413;-69
2022/12/29 01:48:55;;;;;;;3.87;1.77;;;9.00;99.90;;;;;;5033316;28;20774;-69
2022/12/29 01:51:24;;;;;;;4.00;1.77;;;9.10;99.90;;;;;;5033469;28;20417;-68
2022/12/29 01:53:51;;;;;;;2.20;1.50;;;9.20;99.90;;;;;;5033193;28;20480;-68
2022/12/29 01:56:19;;;;;;;2.87;2.00;;;9.20;99.90;;;;;;5033426;28;20762;-69
2022/12/29 01:58:48;;;;;;;3.67;1.70;;;9.30;99.90;;;;;;5032930;28;20452;-69
2022/12/29 02:01:16;;;;;;;3.50;1.50;;;9.30;99.90;;;;;;5033380;28;20464;-68
2022/12/29 02:03:42;;;;;;;2.23;1.80;;;9.40;99.90;;;;;;5033249;28;20432;-68
2022/12/29 02:06:26;;;;;;;4.20;2.20;;;9.40;99.90;;;;;;5033364;28;20753;-68
2022/12/29 02:08:54;;;;;;;2.00;1.73;;;9.40;99.90;;;;;;5032951;28;20162;-68
2022/12/29 02:11:23;;;;;;;6.20;1.80;;;9.40;99.90;;;;;;5033080;28;20416;-68
2022/12/29 02:13:49;;;;;;;1.43;1.33;;;9.40;99.90;;;;;;5033028;28;20445;-70
2022/12/29 02:16:32;;;;;;;2.40;1.90;;;9.40;99.90;;;;;;5033011;28;20417;-69
2022/12/29 02:19:12;;;;;;;2.10;1.30;;;9.40;99.90;;;;;;5032770;28;20602;-69
2022/12/29 02:22:02;;;;;;;2.50;1.47;;;9.40;99.90;;;;;;5033234;28;20428;-70
2022/12/29 02:24:43;;;;;;;2.50;1.70;;;9.40;99.90;;;;;;5032874;28;20462;-69
2022/12/29 02:27:48;;;;;;;3.00;2.00;;;9.40;99.90;;;;;;5032924;28;20497;-69
2022/12/29 02:30:38;;;;;;;2.77;2.37;;;9.40;99.90;;;;;;5032573;28;20417;-68
2022/12/29 02:33:38;;;;;;;1.70;1.33;;;9.40;99.90;;;;;;4985325;28;20453;-69
2022/12/29 02:36:12;;;;;;;1.70;1.50;;;9.40;99.90;;;;;;5000816;28;20574;-68
2022/12/29 02:38:55;;;;;;;3.27;1.80;;;9.40;99.90;;;;;;5032260;28;20484;-69
2022/12/29 02:41:32;;;;;;;5.90;1.60;;;9.40;99.90;;;;;;5032710;28;20402;-68
2022/12/29 02:44:21;;;;;;;1.57;1.20;;;9.50;99.90;;;;;;5032579;28;20429;-68
2022/12/29 02:46:53;;;;;;;3.80;1.80;;;9.60;99.90;;;;;;5032507;28;20883;-69
2022/12/29 02:49:37;;;;;;;2.40;1.23;;;9.60;99.90;;;;;;5032232;28;20964;-68
2022/12/29 02:52:05;;;;;;;2.50;1.63;;;9.70;99.90;;;;;;5032426;28;20432;-70
2022/12/29 02:54:40;;;;;;;1.77;1.67;;;9.80;99.90;;;;;;5032369;28;20409;-69
2022/12/29 02:57:27;;;;;;;1.97;1.60;;;9.80;99.90;;;;;;5032456;28;20448;-68
2022/12/29 02:59:59;;;;;;;6.63;2.60;;;9.90;99.90;;;;;;5032151;28;20555;-69
2022/12/29 03:02:55;;;;;;;1.53;1.43;;;10.00;99.90;;;;;;5032345;28;20428;-69
2022/12/29 03:05:29;;;;;;;1.87;1.77;;;10.10;99.90;;;;;;5032317;28;20409;-68
2022/12/29 03:08:03;;;;;;;3.77;1.50;;;10.00;99.90;;;;;;5032397;28;20847;-68
2022/12/29 03:10:48;;;;;;;2.10;1.90;;;10.10;99.90;;;;;;5031991;28;20405;-69
2022/12/29 03:16:40;;;;;;;3.00;1.30;;;10.10;99.90;;;;;;5032237;28;20467;-68
2022/12/29 03:19:25;;;;;;;2.17;1.33;;;10.10;99.90;;;;;;5031762;28;21027;-68
2022/12/29 03:22:28;;;;;;;2.60;1.80;;;10.10;99.90;;;;;;5031899;28;20416;-68
2022/12/29 03:25:10;;;;;;;1.40;1.20;;;10.20;99.90;;;;;;5032000;28;20926;-69
2022/12/29 03:27:41;;;;;;;5.63;1.60;;;10.30;99.90;;;;;;5032028;28;20969;-69
2022/12/29 03:30:08;;;;;;;2.67;1.60;;;10.40;99.90;;;;;;5031828;28;20821;-69
2022/12/29 03:32:38;;;;;;;1.73;1.40;;;10.40;99.90;;;;;;5031829;28;20810;-69
2022/12/29 03:35:06;;;;;;;3.80;1.70;;;10.40;99.90;;;;;;5031969;28;20768;-68
2022/12/29 03:37:38;;;;;;;2.53;1.37;;;10.40;99.90;;;;;;5031870;28;20499;-69
2022/12/29 03:40:05;;;;;;;2.17;1.40;;;10.40;99.90;;;;;;5031580;28;20449;-69
2022/12/29 03:42:33;;;;;;;3.40;1.60;;;10.50;99.90;;;;;;5031709;28;20532;-69
2022/12/29 03:44:59;;;;;;;2.03;1.47;;;10.60;99.90;;;;;;5032073;28;20512;-69
2022/12/29 03:47:25;;;;;;;2.00;1.17;;;10.60;99.90;;;;;;5032441;28;20441;-68
2022/12/29 03:49:51;;;;;;;1.70;1.47;;;10.70;99.90;;;;;;5035663;28;20699;-69
2022/12/29 03:52:17;;;;;;;1.77;1.63;;;10.70;99.90;;;;;;5035690;28;20433;-68
2022/12/29 03:54:43;;;;;;;1.90;1.57;;;10.80;99.90;;;;;;5035724;28;20166;-69
2022/12/29 03:57:10;;;;;;;1.63;1.40;;;10.80;99.90;;;;;;5035721;28;20425;-68
2022/12/29 03:59:36;;;;;;;3.43;1.63;;;10.70;99.90;;;;;;5035348;28;20205;-68
2022/12/29 04:02:01;;;;;;;2.23;1.80;;;10.80;99.90;;;;;;5035527;28;20440;-68
2022/12/29 04:04:27;;;;;;;2.40;1.30;;;10.70;99.90;;;;;;5035545;28;20170;-69
2022/12/29 04:06:52;;;;;;;4.43;1.50;;;10.70;99.90;;;;;;5035723;28;20265;-68
2022/12/29 04:09:18;;;;;;;1.63;1.40;;;10.60;99.90;;;;;;5035219;28;20660;-69
2022/12/29 04:11:43;;;;;;;2.20;2.00;;;10.50;99.90;;;;;;5035160;28;20194;-69
2022/12/29 04:14:09;;;;;;;2.87;1.60;;;10.50;99.90;;;;;;5035273;28;20213;-69
2022/12/29 04:16:35;;;;;;;2.10;1.63;;;10.40;99.90;;;;;;5035278;28;20269;-69
2022/12/29 04:19:01;;;;;;;1.60;1.50;;;10.40;99.90;;;;;;5034899;28;20240;-68
2022/12/29 04:21:27;;;;;;;4.30;1.63;;;10.30;99.90;;;;;;5035201;28;20416;-69
2022/12/29 04:23:52;;;;;;;3.00;1.47;;;10.20;99.90;;;;;;5035132;28;20436;-69
2022/12/29 04:26:18;;;;;;;1.50;1.40;;;10.20;99.90;;;;;;5035210;28;20171;-68
2022/12/29 04:28:43;;;;;;;2.80;1.57;;;10.10;99.90;;;;;;5034910;28;20171;-69
2022/12/29 04:31:09;;;;;;;1.87;1.60;;;10.10;99.90;;;;;;5035116;28;20175;-69
2022/12/29 04:33:35;;;;;;;2.03;1.80;;;10.00;99.90;;;;;;5034991;28;20699;-68
2022/12/29 04:36:00;;;;;;;2.17;1.63;;;10.10;99.90;;;;;;5035095;28;20170;-69
2022/12/29 04:38:26;;;;;;;1.90;1.77;;;10.20;99.90;;;;;;5034641;28;20174;-68
2022/12/29 04:40:51;;;;;;;3.20;1.50;;;10.20;99.90;;;;;;5034835;28;20177;-68
2022/12/29 04:43:22;;;;;;;2.30;1.60;;;10.20;99.90;;;;;;5034795;28;20189;-69
2022/12/29 04:45:48;;;;;;;2.40;1.90;;;10.30;99.90;;;;;;5034870;28;20214;-69
2022/12/29 04:48:14;;;;;;;3.10;1.70;;;10.30;99.90;;;;;;5034759;28;20409;-69
2022/12/29 04:50:40;;;;;;;3.70;1.47;;;10.30;99.90;;;;;;5034715;28;20409;-68
2022/12/29 04:53:06;;;;;;;5.63;2.00;;;10.40;99.90;;;;;;5034640;28;20806;-68
2022/12/29 04:55:32;;;;;;;2.03;1.50;;;10.40;99.90;;;;;;5034813;28;20417;-69
2022/12/29 04:57:58;;;;;;;1.77;1.67;;;10.40;99.90;;;;;;5034575;28;20423;-69
2022/12/29 05:00:23;;;;;;;3.20;1.57;;;10.40;99.90;;;;;;5032878;28;20194;-69
2022/12/29 05:02:49;;;;;;;2.23;1.87;;;10.40;99.90;;;;;;5034675;28;20194;-68
2022/12/29 05:05:15;;;;;;;2.30;1.40;;;10.40;99.90;;;;;;5034460;28;20167;-68
2022/12/29 05:07:40;;;;;;;2.40;1.80;;;10.40;99.90;;;;;;5034661;28;20674;-69
2022/12/29 05:10:07;;;;;;;1.70;1.50;;;10.50;99.90;;;;;;5034119;28;20212;-69
2022/12/29 05:12:33;;;;;;;3.40;1.67;;;10.50;99.90;;;;;;5034086;28;20487;-70
2022/12/29 05:14:59;;;;;;;4.10;1.87;;;10.50;99.90;;;;;;5016471;28;20417;-69
2022/12/29 05:17:25;;;;;;;3.47;2.40;;;10.50;99.90;;;;;;5034458;28;20764;-69
2022/12/29 05:19:51;;;;;;;1.97;1.80;;;10.50;99.90;;;;;;5033830;28;20213;-69
2022/12/29 05:22:17;;;;;;;2.97;2.10;;;10.50;99.90;;;;;;5034062;28;20436;-68
2022/12/29 05:24:42;;;;;;;3.00;1.70;;;10.40;99.90;;;;;;5034085;28;20229;-69
2022/12/29 05:27:08;;;;;;;3.27;2.20;;;10.50;99.90;;;;;;5033968;28;20174;-69
2022/12/29 05:29:33;;;;;;;3.23;2.00;;;10.50;99.90;;;;;;5033828;28;20194;-68
2022/12/29 05:31:59;;;;;;;9.63;2.20;;;10.40;99.90;;;;;;5033862;28;20262;-68
2022/12/29 05:34:24;;;;;;;1.67;1.57;;;10.40;99.90;;;;;;5033855;28;20167;-70
2022/12/29 05:36:50;;;;;;;2.47;2.27;;;10.40;99.90;;;;;;5033853;28;20764;-69
2022/12/29 05:39:15;;;;;;;5.90;1.90;;;10.40;99.90;;;;;;5033494;28;20190;-69
2022/12/29 05:41:41;;;;;;;2.07;1.63;;;10.40;99.90;;;;;;5033712;28;20534;-70
2022/12/29 05:44:06;;;;;;;2.50;1.90;;;10.40;99.90;;;;;;5033905;28;20204;-68
2022/12/29 05:46:32;;;;;;;2.00;1.67;;;10.40;99.90;;;;;;5033667;28;20636;-69
2022/12/29 05:48:57;;;;;;;2.03;1.53;;;10.40;99.90;;;;;;5033328;28;20736;-70
2022/12/29 05:51:23;;;;;;;2.33;1.90;;;10.50;99.90;;;;;;5033870;28;20205;-68
2022/12/29 05:53:48;;;;;;;3.43;1.97;;;10.40;99.90;;;;;;5033725;28;20198;-68
2022/12/29 05:56:14;;;;;;;2.03;1.80;;;10.40;99.90;;;;;;5033463;28;20174;-69
2022/12/29 05:58:39;;;;;;;3.50;2.07;;;10.50;99.90;;;;;;5033104;28;20200;-69
2022/12/29 06:01:05;;;;;;;2.10;1.90;;;10.50;99.90;;;;;;5033645;28;20174;-68
2022/12/29 06:03:30;;;;;;;3.60;1.67;;;10.50;99.90;;;;;;5033181;28;20560;-69
2022/12/29 06:05:56;;;;;;;2.50;2.00;;;10.50;99.90;;;;;;5033579;28;20174;-69
2022/12/29 06:08:22;;;;;;;3.80;2.00;;;10.60;99.90;;;;;;5032954;28;20170;-68
2022/12/29 06:10:47;;;;;;;1.77;1.63;;;10.60;99.90;;;;;;5032768;28;20327;-67
2022/12/29 06:13:13;;;;;;;2.93;1.90;;;10.60;99.90;;;;;;5033551;28;20209;-68
2022/12/29 06:15:38;;;;;;;3.93;3.13;;;10.60;99.90;;;;;;5033077;28;20166;-69
2022/12/29 06:18:04;;;;;;;2.47;2.27;;;10.60;99.90;;;;;;5033118;28;20206;-68
2022/12/29 06:20:29;;;;;;;2.37;1.93;;;10.60;99.90;;;;;;5032708;28;20597;-69
2022/12/29 06:22:55;;;;;;;4.97;1.80;;;10.60;99.90;;;;;;5032875;28;20240;-69
2022/12/29 06:25:20;;;;;;;2.90;2.23;;;10.70;99.90;;;;;;5032953;28;20171;-68
2022/12/29 06:27:46;;;;;;;2.43;1.50;;;10.60;99.90;;;;;;5032912;28;20257;-68
2022/12/29 06:30:12;;;;;;;3.63;1.80;;;10.70;99.90;;;;;;5032584;28;20178;-69
2022/12/29 06:32:38;;;;;;;2.77;2.10;;;10.70;99.90;;;;;;5032760;28;20289;-69
2022/12/29 06:35:05;;;;;;;1.77;1.63;;;10.70;99.90;;;;;;5032757;28;20495;-69
2022/12/29 06:37:31;;;;;;;1.97;1.77;;;10.70;99.90;;;;;;5032780;28;20660;-68
2022/12/29 06:39:57;;;;;;;3.37;2.07;;;10.80;99.90;;;;;;5032327;28;20543;-68
2022/12/29 06:42:23;;;;;;;2.97;1.70;;;10.80;99.90;;;;;;5032491;28;20539;-68
2022/12/29 06:44:49;;;;;;;2.63;1.60;;;10.80;99.90;;;;;;5014879;28;20444;-68
2022/12/29 06:47:14;;;;;;;2.50;1.90;;;10.80;99.90;;;;;;5032512;28;20257;-68
2022/12/29 06:49:40;;;;;;;2.37;1.90;;;10.80;99.90;;;;;;5032309;28;20170;-68
2022/12/29 06:52:05;;;;;;;2.20;2.00;;;10.70;99.90;;;;;;5032405;28;20201;-69
2022/12/29 06:54:31;;;;;;;1.90;1.70;;;10.70;99.90;;;;;;5032495;28;20174;-69
2022/12/29 06:56:56;;;;;;;2.03;1.83;;;10.70;99.90;;;;;;5032368;28;20178;-69
2022/12/29 06:59:22;;;;;;;2.30;2.10;;;10.60;99.90;;;;;;5032304;28;20205;-69
2022/12/29 07:01:47;;;;;;;2.33;2.00;;;10.60;99.90;;;;;;5032334;28;20543;-69
2022/12/29 07:04:13;;;;;;;5.03;2.10;;;10.50;99.90;;;;;;5032720;28;20525;-69
2022/12/29 07:06:40;;;;;;;2.13;1.93;;;10.50;99.90;;;;;;5032341;28;20170;-69
2022/12/29 07:09:06;;;;;;;2.93;1.97;;;10.40;99.90;;;;;;5031994;28;20166;-69
2022/12/29 07:11:31;;;;;;;2.90;2.63;;;10.40;99.90;;;;;;5032095;28;20938;-68
2022/12/29 07:13:57;;;;;;;2.80;2.43;;;10.30;99.90;;;;;;5031963;28;20441;-69
2022/12/29 07:16:22;;;;;;;3.03;1.97;;;10.20;99.90;;;;;;5032113;28;20176;-68
2022/12/29 07:18:48;;;;;;;2.40;1.80;;;10.10;99.90;;;;;;5031744;28;20283;-68
2022/12/29 07:21:14;;;;;;;2.67;1.97;;;10.20;99.90;;;;;;5032157;28;20197;-69
2022/12/29 07:23:39;;;;;;;2.43;2.20;;;10.20;99.90;;;;;;5031245;28;20209;-68
2022/12/29 07:26:07;;;;;;;2.73;2.07;;;10.20;99.90;;;;;;5032017;28;20253;-69
2022/12/29 07:28:35;;;;;;;2.50;1.80;;;10.20;99.90;;;;;;5031748;28;20213;-68
2022/12/29 07:31:00;;;;;;;4.80;2.50;;;10.20;99.90;;;;;;5031934;28;20474;-70
2022/12/29 07:33:28;;;;;;;5.10;2.10;;;10.10;99.90;;;;;;5031857;28;21189;-67
2022/12/29 07:35:54;;;;;;;2.03;1.57;;;10.20;99.90;;;;;;5032004;28;20524;-69
2022/12/29 07:38:19;;;;;;;3.37;2.43;;;10.20;99.90;;;;;;5031696;28;20443;-69
2022/12/29 07:40:45;;;;;;;12.03;6.10;;;10.20;99.90;;;;;;5031730;28;20202;-69
2022/12/29 07:43:10;;;;;;;2.10;1.90;;;10.20;99.90;;;;;;5031784;28;20186;-69
2022/12/29 07:45:36;;;;;;;3.50;1.97;;;10.20;99.90;;;;;;5031735;28;20544;-69
2022/12/29 07:48:02;;;;;;;3.90;2.43;;;10.30;99.90;;;;;;5031859;28;20170;-68
2022/12/29 07:50:28;;;;;;;3.17;2.77;;;10.30;99.90;;;;;;5031604;28;20174;-68
2022/12/29 07:52:53;;;;;;;3.70;2.00;;;10.30;99.90;;;;;;5031721;28;20935;-68
2022/12/29 07:55:19;;;;;;;2.57;1.87;;;10.40;99.90;;;;;;5031758;28;20428;-68
2022/12/29 07:57:45;;;;;;;2.53;1.77;;;10.40;99.90;;;;;;5031766;28;20213;-69
2022/12/29 08:00:11;;;;;;;1.97;1.67;;;10.50;99.90;;;;;;5031442;28;20200;-69
2022/12/29 08:02:36;;;;;;;2.10;1.67;;;10.50;99.90;;;;;;5031561;28;20216;-69
2022/12/29 08:05:02;;;;;;;5.83;1.90;;;10.50;99.90;;;;;;5031625;28;20409;-69
2022/12/29 08:07:27;;;;;;;2.33;1.73;;;10.60;99.90;;;;;;5031683;28;20178;-69
2022/12/29 08:09:53;;;;;;;2.03;1.83;;;10.60;99.90;;;;;;5031400;28;20174;-68
2022/12/29 08:12:19;;;;;;;3.00;1.63;;;10.60;99.90;;;;;;5030981;28;20217;-68
2022/12/29 08:14:44;;;;;;;1.90;1.80;;;10.60;99.90;;;;;;5031581;28;20178;-68
2022/12/29 08:17:10;;;;;;;2.33;1.70;;;10.60;99.90;;;;;;5031819;28;20217;-68
2022/12/29 08:19:36;;;;;;;1.77;1.67;;;10.70;99.90;;;;;;5031571;28;20230;-68
2022/12/29 08:22:02;;;;;;;1.97;1.73;;;10.70;99.90;;;;;;5031682;28;20226;-68
2022/12/29 08:24:27;;;;;;;4.30;2.00;;;10.70;99.90;;;;;;5031491;28;20953;-68
2022/12/29 08:26:53;;;;;;;2.80;2.10;;;10.70;99.90;;;;;;5031458;28;20181;-69
2022/12/29 08:29:19;;;;;;;2.60;1.57;;;10.70;99.90;;;;;;5031205;28;20197;-68
2022/12/29 08:31:45;;;;;;;2.47;1.73;;;10.80;99.90;;;;;;5031372;28;20660;-69
2022/12/29 08:34:10;;;;;;;3.43;1.70;;;10.80;99.90;;;;;;5032947;28;20170;-69
2022/12/29 08:36:36;;;;;;;6.83;3.50;;;10.80;99.90;;;;;;5034945;28;20174;-69
2022/12/29 08:39:01;;;;;;;2.77;1.90;;;10.80;99.90;;;;;;5034567;28;20575;-68
2022/12/29 08:41:27;;;;;;;3.27;1.43;;;10.80;99.90;;;;;;5034963;28;20799;-68
2022/12/29 08:43:52;;;;;;;2.60;2.10;;;10.80;99.90;;;;;;5034769;28;20285;-70
2022/12/29 08:46:19;;;;;;;3.00;2.33;;;10.80;99.90;;;;;;5034890;28;20246;-68
2022/12/29 08:48:44;;;;;;;2.63;1.87;;;10.90;99.90;;;;;;5034545;28;20162;-68
2022/12/29 08:51:10;;;;;;;2.10;1.70;;;10.80;99.90;;;;;;5034776;28;20428;-68
2022/12/29 08:53:36;;;;;;;1.63;1.50;;;10.90;99.90;;;;;;5034807;28;20190;-69
2022/12/29 08:56:02;;;;;;;1.73;1.63;;;10.90;99.90;;;;;;5034615;28;20249;-68
2022/12/29 08:58:28;;;;;;;2.53;1.50;;;10.90;99.90;;;;;;5034457;28;20772;-68
2022/12/29 09:00:55;;;;;;;1.83;1.53;;;11.00;99.90;;;;;;5016827;28;20511;-68
2022/12/29 09:03:21;;;;;;;2.17;1.83;;;11.00;99.90;;;;;;5034383;28;20190;-69
2022/12/29 09:05:51;;;;;;;3.27;1.93;;;11.00;99.90;;;;;;5034444;28;20424;-69
2022/12/29 09:08:17;;;;;;;2.03;1.70;;;11.00;99.90;;;;;;5034253;28;20425;-69
2022/12/29 09:10:44;;;;;;;2.03;1.80;;;11.00;99.90;;;;;;5034334;28;20423;-69
2022/12/29 09:13:11;;;;;;;3.03;1.97;;;11.00;99.90;;;;;;5033728;28;20206;-68
2022/12/29 09:15:37;;;;;;;2.20;1.60;;;11.00;99.90;;;;;;5034265;28;20417;-69
2022/12/29 09:18:03;;;;;;;3.80;1.70;;;11.00;99.90;;;;;;5034115;28;20416;-68
2022/12/29 09:20:29;;;;;;;2.00;1.80;;;11.00;99.90;;;;;;5033869;28;20461;-69
2022/12/29 09:22:54;;;;;;;4.10;1.67;;;11.00;99.90;;;;;;5034136;28;20193;-69
2022/12/29 09:25:22;;;;;;;1.70;1.53;;;11.00;99.90;;;;;;5034064;28;20426;-68
2022/12/29 09:27:48;;;;;;;2.77;2.43;;;11.10;99.90;;;;;;5034092;28;20683;-68
2022/12/29 09:30:14;;;;;;;3.50;1.80;;;11.10;99.90;;;;;;5033895;28;20474;-69
2022/12/29 09:32:40;;;;;;;3.77;1.87;;;11.20;99.90;;;;;;5033921;28;20190;-68
2022/12/29 09:35:06;;;;;;;5.00;2.20;;;11.30;99.90;;;;;;5033949;28;20785;-67
2022/12/29 09:37:31;;;;;;;2.20;2.00;;;11.40;99.90;;;;;;5033830;28;20552;-69
2022/12/29 09:39:57;;;;;;;8.50;2.20;;;11.40;99.90;;;;;;5033520;28;20244;-68
2022/12/29 09:42:32;;;;;;;3.40;2.10;;;11.40;99.90;;;;;;5033757;28;20679;-68
2022/12/29 09:45:06;;;;;;;4.90;2.23;;;11.50;99.90;;;;;;5033280;28;20173;-68
2022/12/29 09:47:32;;;;;;;2.90;2.00;;;11.50;99.90;;;;;;5033647;28;20443;-68
2022/12/29 09:50:08;;;;;;;1.80;1.70;;;11.50;99.90;;;;;;5033444;28;20508;-69
2022/12/29 09:52:48;;;;;;;2.53;2.33;;;11.60;99.90;;;;;;5033623;28;20634;-68
2022/12/29 09:55:17;;;;;;;3.60;2.90;;;11.60;99.90;;;;;;5033585;28;20416;-68
2022/12/29 09:57:56;;;;;;;2.17;1.97;;;11.80;99.90;;;;;;5033380;28;20937;-68
2022/12/29 10:00:33;;;;;;;2.30;1.67;;;11.80;99.90;;;;;;5033232;28;20460;-69
2022/12/29 10:03:22;;;;;;;1.93;1.73;;;11.90;99.90;;;;;;5033363;28;20803;-68
2022/12/29 10:06:03;;;;;;;3.20;2.27;;;11.90;99.90;;;;;;5033367;28;20413;-69
2022/12/29 10:08:46;;;;;;;3.00;1.90;;;11.90;99.90;;;;;;5033135;28;20492;-68
2022/12/29 10:11:36;;;;;;;2.40;2.20;;;12.00;99.90;;;;;;5033142;28;20416;-68
2022/12/29 10:14:41;;;;;;;3.50;2.57;;;12.10;99.90;;;;;;5032694;28;20504;-69
2022/12/29 10:17:45;;;;;;;2.00;1.37;;;12.10;99.90;;;;;;5033169;28;20401;-68
2022/12/29 10:20:26;;;;;;;3.10;2.73;;;12.20;99.90;;;;;;5032818;28;20454;-70
2022/12/29 10:23:18;;;;;;;2.70;1.73;;;12.30;99.90;;;;;;5033130;28;20444;-69
2022/12/29 10:25:45;;;;;;;1.60;1.47;;;12.40;99.90;;;;;;5032973;28;20444;-68
2022/12/29 10:28:30;;;;;;;1.77;1.67;;;12.50;99.90;;;;;;5032713;28;20413;-68
2022/12/29 10:30:58;;;;;;;3.57;2.37;;;12.60;99.90;;;;;;5032924;28;20440;-69
2022/12/29 10:33:34;;;;;;;2.37;1.70;;;12.60;99.90;;;;;;5032865;28;20476;-69
2022/12/29 10:36:02;;;;;;;3.17;2.20;;;12.70;99.90;;;;;;5033100;28;20801;-68
2022/12/29 10:38:54;;;;;;;5.40;2.80;;;12.80;99.90;;;;;;5032550;28;20431;-68
2022/12/29 10:41:41;;;;;;;5.77;2.20;;;12.80;99.90;;;;;;5015129;28;20444;-68
2022/12/29 10:44:11;;;;;;;6.50;1.80;;;12.90;99.90;;;;;;5032667;28;20409;-68
2022/12/29 10:46:37;;;;;;;2.10;2.00;;;13.50;99.90;;;;;;5032607;28;20420;-68
2022/12/29 10:49:05;;;;;;;3.00;1.77;;;14.50;99.90;;;;;;5032323;28;20421;-68
2022/12/29 10:51:37;;;;;;;4.60;2.27;;;15.30;99.90;;;;;;5032490;28;20920;-68
2022/12/29 10:54:13;;;;;;;1.93;1.67;;;16.80;99.90;;;;;;5032728;28;20429;-69
2022/12/29 10:56:47;;;;;;;3.10;2.57;;;18.30;99.90;;;;;;5032456;28;20413;-68
2022/12/29 10:59:22;;;;;;;10.90;2.37;;;18.80;99.00;;;;;;5032355;28;20445;-69
2022/12/29 11:02:04;;;;;;;4.57;3.30;;;19.10;98.00;;;;;;5032288;28;20417;-68
2022/12/29 11:05:04;;;;;;;3.00;1.80;;;19.30;97.00;;;;;;5032382;28;20750;-68
2022/12/29 11:07:31;;;;;;;2.50;2.00;;;17.80;97.50;;;;;;5032298;28;20467;-68
2022/12/29 11:10:18;;;;;;;2.93;2.60;;;16.10;99.90;;;;;;5032066;28;20565;-69
2022/12/29 11:13:10;;;;;;;2.80;1.97;;;14.90;99.90;;;;;;5031564;28;20453;-69
2022/12/29 11:15:47;;;;;;;2.03;1.87;;;14.20;99.90;;;;;;5032431;28;20452;-68
2022/12/29 11:18:21;;;;;;;2.30;2.10;;;13.80;99.90;;;;;;5031975;28;20425;-69
2022/12/29 11:20:48;;;;;;;3.20;2.07;;;13.70;99.90;;;;;;5032024;28;20824;-69
2022/12/29 11:23:23;;;;;;;4.50;2.10;;;13.60;99.90;;;;;;5032010;28;20433;-68
2022/12/29 11:26:21;;;;;;;2.17;1.97;;;13.50;99.90;;;;;;5031921;28;20799;-69
2022/12/29 11:29:12;;;;;;;3.13;1.83;;;13.30;99.90;;;;;;5031873;28;20406;-68
2022/12/29 11:31:45;;;;;;;2.50;2.17;;;13.10;99.90;;;;;;5032017;28;20408;-68
2022/12/29 11:34:37;;;;;;;1.80;1.70;;;13.00;99.90;;;;;;5031999;28;20547;-69
2022/12/29 11:37:10;;;;;;;3.83;1.93;;;12.90;99.90;;;;;;5027167;28;20432;-68
2022/12/29 11:39:43;;;;;;;2.77;1.70;;;12.80;99.90;;;;;;5031841;28;20452;-68
2022/12/29 11:42:18;;;;;;;2.17;1.87;;;12.70;99.90;;;;;;5032030;28;20448;-69
2022/12/29 11:44:49;;;;;;;3.10;2.00;;;12.60;99.90;;;;;;5031860;28;20438;-68
2022/12/29 11:47:28;;;;;;;2.27;2.07;;;12.80;99.90;;;;;;5031825;28;20413;-70
2022/12/29 11:50:00;;;;;;;3.20;2.20;;;12.90;99.90;;;;;;5031674;28;20423;-69
2022/12/29 11:52:32;;;;;;;3.23;2.57;;;12.80;99.90;;;;;;5031823;28;20432;-68
2022/12/29 11:55:00;;;;;;;2.13;1.90;;;12.90;99.90;;;;;;5031754;28;20459;-68
2022/12/29 11:57:27;;;;;;;3.07;2.20;;;12.90;99.90;;;;;;5031751;28;20421;-68
2022/12/29 11:59:55;;;;;;;2.73;2.23;;;12.70;99.90;;;;;;5031556;28;20456;-67
2022/12/29 12:02:45;;;;;;;1.73;1.63;;;12.70;99.90;;;;;;5031704;28;20470;-67
2022/12/29 12:05:30;;;;;;;3.10;2.03;;;12.60;99.90;;;;;;5014138;28;20918;-69
2022/12/29 12:08:02;;;;;;;1.80;1.70;;;12.60;99.90;;;;;;5031726;28;20420;-67
2022/12/29 12:10:38;;;;;;;4.13;2.60;;;12.50;99.90;;;;;;5035209;28;20906;-67
2022/12/29 12:13:03;;;;;;;2.97;2.00;;;12.50;99.90;;;;;;5035823;28;20972;-70
2022/12/29 12:15:36;;;;;;;2.33;1.80;;;12.40;99.90;;;;;;5035346;28;20500;-70
2022/12/29 12:18:09;;;;;;;6.13;2.40;;;12.40;99.90;;;;;;5035314;28;20170;-70
2022/12/29 12:20:43;;;;;;;1.90;1.80;;;12.40;99.90;;;;;;5035068;28;20862;-70
2022/12/29 12:23:27;;;;;;;2.43;1.97;;;12.30;99.90;;;;;;5035228;28;20463;-70
2022/12/29 12:26:24;;;;;;;2.60;1.73;;;12.40;99.90;;;;;;5035208;28;20401;-70
2022/12/29 12:28:59;;;;;;;1.80;1.67;;;12.40;99.90;;;;;;5013083;28;20428;-70
2022/12/29 12:32:09;;;;;;;3.47;2.03;;;12.50;99.90;;;;;;5035084;28;20412;-70
2022/12/29 12:34:41;;;;;;;3.23;2.17;;;12.50;99.90;;;;;;5034921;28;20433;-70
2022/12/29 12:37:53;;;;;;;2.43;2.03;;;12.50;99.90;;;;;;5034918;28;20853;-70
2022/12/29 12:40:21;;;;;;;3.17;2.40;;;12.30;99.90;;;;;;5034567;28;21056;-70
2022/12/29 12:43:06;;;;;;;3.23;2.70;;;12.00;99.90;;;;;;5034751;28;20433;-70
2022/12/29 12:45:58;;;;;;;3.13;2.40;;;11.70;99.90;;;;;;5034905;28;20444;-70
2022/12/29 12:48:33;;;;;;;2.00;1.67;;;11.40;99.90;;;;;;5034656;28;21340;-70
2022/12/29 12:51:01;;;;;;;3.93;3.63;;;11.30;99.90;;;;;;5034692;28;20946;-70
2022/12/29 12:53:33;;;;;;;4.90;3.00;;;11.40;99.90;;;;;;5034565;28;20483;-70
2022/12/29 12:56:16;;;;;;;4.90;2.73;;;11.40;99.90;;;;;;5034583;28;20416;-70
2022/12/29 12:58:48;;;;;;;2.90;2.60;;;11.50;99.90;;;;;;5034287;28;20419;-70
2022/12/29 13:01:14;;;;;;;5.17;2.60;;;12.10;99.90;;;;;;5034706;28;20409;-70
2022/12/29 13:03:50;;;;;;;5.20;2.43;;;13.90;99.90;;;;;;5034459;28;20473;-70
2022/12/29 13:06:57;;;;;;;2.37;2.00;;;16.40;99.90;;;;;;5034306;28;20229;-70
2022/12/29 13:09:41;;;;;;;3.37;2.43;;;17.50;99.90;;;;;;5033390;28;20471;-70
2022/12/29 13:12:32;;;;;;;2.87;2.50;;;16.20;99.90;;;;;;5033509;28;20500;-70
2022/12/29 13:15:35;;;;;;;3.33;2.53;;;15.30;99.90;;;;;;4996148;28;20429;-70
2022/12/29 13:18:33;;;;;;;2.57;2.37;;;15.00;99.90;;;;;;5033969;28;20470;-70
2022/12/29 13:21:24;;;;;;;2.97;2.47;;;15.10;99.90;;;;;;5033064;28;20455;-70
2022/12/29 13:24:04;;;;;;;1.97;1.87;;;15.20;99.90;;;;;;5034029;28;20432;-70
2022/12/29 13:26:43;;;;;;;2.87;2.10;;;15.10;99.90;;;;;;5034137;28;20741;-70
2022/12/29 13:29:33;;;;;;;2.90;1.93;;;14.40;99.90;;;;;;5033731;28;20918;-70
2022/12/29 13:32:39;;;;;;;2.30;2.10;;;13.50;99.90;;;;;;5033916;28;20832;-70
2022/12/29 13:35:39;;;;;;;4.33;2.70;;;12.90;99.90;;;;;;4985218;28;20441;-70
2022/12/29 13:38:13;;;;;;;3.90;2.00;;;12.60;99.90;;;;;;5033841;28;20491;-70
2022/12/29 13:40:44;;;;;;;2.50;2.10;;;12.40;99.90;;;;;;5033690;28;20455;-70
2022/12/29 13:43:12;;;;;;;5.00;2.53;;;12.40;99.90;;;;;;5033701;28;20490;-70